Belew Creek, North Carolina
Current Conditions -  °F | °C
As of 11:54 AM on Sunday 21 Dec 2014 (Local Time) from KINT Reporting Station
Overcast Overcast  
Wind Chill: 45°   Ceiling: 2600
Heat Index: 45°   Visibility: 7mi
Dew Point: 35°   Wind: 3mph
Humidity: 68%   Direction: NA
Pressure: 30.27"   Gusts: NA
Location:  36.2283°N, 80.0849°W
Report Text: KINT 211654Z VRB03KT 7SM OVC026 07/02 A3027 RMK AO2 SLP253 T00720017
Loading
Personal Weather Stations






























Interactive Weather Map New forecast layout! Learn more

10-Day Weather Forecast

Advertisements
Track Severe Weather on mobile